Time;durP1;ratioP1;P1;durP2;ratioP2;P2;SDS_P1;SDS_P2;PMS_P1;PMS_P2;Temp;Humidity;BMP_temperature;BMP_pressure;BME280_temperature;BME280_humidity;BME280_pressure;Samples;Min_cycle;Max_cycle;Signal;HPM_P1;HPM_P2
2023/03/12 00:01:55;;;;;;;3.77;2.00;;;2.20;83.30;;;0.29;63.48;99554.78;10366768;28;97629;-86
2023/03/12 00:06:58;;;;;;;3.57;2.20;;;2.10;82.90;;;0.24;62.97;99552.53;10318605;28;96583;-86
2023/03/12 00:12:01;;;;;;;3.43;1.90;;;2.10;82.80;;;0.20;62.87;99564.16;10335427;28;96607;-89
2023/03/12 00:17:04;;;;;;;3.53;2.23;;;2.00;82.50;;;0.16;62.41;99561.91;10334381;28;96600;-90
2023/03/12 00:22:07;;;;;;;3.37;2.03;;;2.00;82.00;;;0.13;62.36;99568.19;10312105;28;96527;-90
2023/03/12 00:27:10;;;;;;;3.13;1.87;;;2.00;81.70;;;0.12;62.03;99576.13;10318521;28;96706;-90
2023/03/12 00:32:14;;;;;;;3.73;1.73;;;1.90;81.60;;;0.04;62.31;99574.13;10353104;28;96663;-89
2023/03/12 00:37:17;;;;;;;3.43;1.70;;;1.90;81.60;;;0.01;62.03;99576.97;10316380;28;98611;-90
2023/03/12 00:42:20;;;;;;;3.87;2.30;;;1.80;81.10;;;0.02;61.81;99583.84;10319356;28;96510;-87
2023/03/12 00:47:23;;;;;;;4.00;2.00;;;1.80;81.00;;;0.02;61.56;99588.25;10332069;28;96581;-86
2023/03/12 00:52:26;;;;;;;3.07;1.77;;;1.80;80.90;;;0.06;60.75;99594.88;10346715;28;97362;-87
2023/03/12 00:57:29;;;;;;;3.37;2.00;;;1.90;80.30;;;0.07;60.26;99601.81;10334425;28;97393;-86
2023/03/12 01:02:32;;;;;;;3.37;1.90;;;1.80;79.40;;;0.11;59.85;99584.94;10315196;28;96891;-87
2023/03/12 01:07:35;;;;;;;3.17;1.87;;;1.90;78.80;;;0.15;59.05;99579.34;10318836;28;96649;-87
2023/03/12 01:12:38;;;;;;;2.87;1.73;;;1.90;77.70;;;0.21;58.43;99581.50;10349471;28;98665;-87
2023/03/12 01:17:41;;;;;;;4.80;1.90;;;2.00;77.10;;;0.26;57.23;99565.47;10313532;28;98494;-87
2023/03/12 01:22:44;;;;;;;3.93;2.10;;;2.00;76.60;;;0.25;57.28;99569.88;10307205;28;96669;-86
2023/03/12 01:27:47;;;;;;;3.50;1.90;;;2.00;76.40;;;0.21;57.46;99573.66;10348141;28;96593;-86
2023/03/12 01:32:51;;;;;;;2.87;1.47;;;2.00;76.50;;;0.18;57.46;99581.75;10303331;28;97754;-86
2023/03/12 01:37:54;;;;;;;3.50;1.90;;;1.90;76.50;;;0.11;57.41;99592.75;10319202;28;96496;-86
2023/03/12 01:42:58;;;;;;;3.60;1.80;;;1.90;76.60;;;0.03;57.78;99601.19;10293735;28;96775;-88
2023/03/12 01:48:01;;;;;;;2.43;1.60;;;1.90;76.80;;;-0.07;58.39;99618.50;10335276;28;98423;-88
2023/03/12 01:53:04;;;;;;;3.23;1.80;;;1.70;77.00;;;-0.20;58.89;99636.84;10301362;28;97450;-88
2023/03/12 01:58:08;;;;;;;3.53;1.87;;;1.70;77.30;;;-0.30;59.25;99651.50;10283464;28;96693;-87
2023/03/12 02:03:12;;;;;;;4.23;2.00;;;1.60;77.70;;;-0.40;59.86;99651.38;10303904;28;96624;-89
2023/03/12 02:08:17;;;;;;;7.57;3.63;;;1.50;78.70;;;-0.49;60.41;99659.03;10337948;28;96635;-89
2023/03/12 02:13:20;;;;;;;4.73;2.73;;;1.40;79.00;;;-0.61;61.13;99658.97;10336952;28;96405;-89
2023/03/12 02:18:24;;;;;;;5.40;2.63;;;1.30;79.70;;;-0.67;62.80;99671.63;10319857;28;98836;-87
2023/03/12 02:23:37;;;;;;;3.27;2.03;;;1.20;81.20;;;-0.74;63.63;99667.78;10338294;28;96865;-87
2023/03/12 02:28:44;;;;;;;4.10;2.30;;;1.20;82.50;;;-0.75;64.24;99674.78;10348825;28;96635;-88
2023/03/12 02:33:47;;;;;;;4.23;2.40;;;1.10;83.00;;;-0.72;64.71;99687.63;10361335;28;96801;-86
2023/03/12 02:38:53;;;;;;;3.60;2.30;;;1.20;84.00;;;-0.75;65.06;99692.22;10328619;28;96539;-86
2023/03/12 02:44:12;;;;;;;3.17;2.00;;;1.10;84.80;;;-0.80;65.08;99687.31;10311734;28;97502;-86
2023/03/12 02:49:19;;;;;;;5.07;2.57;;;1.10;84.40;;;-0.88;65.87;99694.84;10325639;28;96567;-86
2023/03/12 02:54:23;;;;;;;5.27;2.67;;;1.00;85.40;;;-0.95;66.17;99694.44;10266520;28;96572;-85
2023/03/12 02:59:26;;;;;;;4.40;2.40;;;1.00;85.60;;;-0.99;66.20;99694.75;10294902;28;96647;-86
2023/03/12 03:04:30;;;;;;;4.73;2.57;;;0.90;86.00;;;-1.01;66.51;99704.47;10325864;28;98252;-86
2023/03/12 03:09:33;;;;;;;4.10;2.50;;;0.90;86.20;;;-1.02;66.08;99727.13;10311592;28;96682;-86
2023/03/12 03:14:36;;;;;;;7.57;3.30;;;0.90;85.70;;;-1.08;65.82;99735.34;10299307;28;96429;-86
2023/03/12 03:19:40;;;;;;;6.13;2.83;;;0.80;85.60;;;-1.16;66.50;99735.03;10313676;28;96801;-86
2023/03/12 03:24:43;;;;;;;5.63;3.30;;;0.70;85.40;;;-1.23;66.66;99752.03;10316823;28;96648;-86
2023/03/12 03:29:46;;;;;;;3.33;2.40;;;0.70;85.90;;;-1.31;67.39;99767.38;10359324;28;96519;-88
2023/03/12 03:34:49;;;;;;;4.10;2.63;;;0.60;86.00;;;-1.36;68.56;99765.91;10321187;28;96715;-87
2023/03/12 03:39:52;;;;;;;4.90;2.93;;;0.60;86.90;;;-1.33;68.77;99769.22;10351282;28;96845;-89
2023/03/12 03:44:55;;;;;;;5.60;3.17;;;0.50;88.10;;;-1.37;69.02;99764.25;10320460;28;96548;-86
2023/03/12 03:49:58;;;;;;;6.30;3.30;;;0.60;88.20;;;-1.36;69.17;99759.84;10320759;28;96956;-86
2023/03/12 03:55:01;;;;;;;4.17;2.80;;;0.50;88.50;;;-1.39;69.87;99786.94;10318687;28;96728;-86
2023/03/12 04:00:08;;;;;;;4.23;2.93;;;0.50;89.00;;;-1.41;69.93;99791.44;10301862;28;96469;-85
2023/03/12 04:05:14;;;;;;;5.03;3.20;;;0.50;89.50;;;-1.39;70.06;99783.50;10320964;28;98271;-88
2023/03/12 04:10:21;;;;;;;8.13;3.60;;;0.50;89.80;;;-1.35;70.43;99803.22;10320438;28;96929;-89
2023/03/12 04:15:24;;;;;;;6.37;3.70;;;0.50;90.70;;;-1.38;70.11;99800.81;10319002;28;98252;-89
2023/03/12 04:20:27;;;;;;;6.20;3.90;;;0.50;90.10;;;-1.51;69.95;99816.41;10305145;28;97022;-88
2023/03/12 04:25:30;;;;;;;6.83;4.00;;;0.40;90.10;;;-1.67;70.82;99832.25;10304811;28;96534;-88
2023/03/12 04:30:37;;;;;;;6.27;4.17;;;0.30;90.30;;;-1.75;71.79;99834.47;10332294;28;96487;-89
2023/03/12 04:35:45;;;;;;;6.63;4.60;;;0.20;91.40;;;-1.73;72.42;99839.63;10317873;28;96554;-88
2023/03/12 04:41:09;;;;;;;6.87;4.30;;;0.20;91.40;;;-1.76;73.14;99829.38;10318910;28;96605;-90
2023/03/12 04:46:12;;;;;;;7.00;4.57;;;0.10;92.20;;;-1.72;73.59;99841.28;10319424;28;96578;-92
2023/03/12 04:51:16;;;;;;;7.87;5.00;;;0.20;92.30;;;-1.76;73.89;99847.59;10311623;28;98741;-89
2023/03/12 04:56:19;;;;;;;9.20;5.37;;;0.20;92.50;;;-1.81;74.67;99850.50;10313010;28;96623;-89
2023/03/12 05:01:32;;;;;;;10.23;5.77;;;0.10;93.50;;;-1.75;75.59;99860.53;10318826;28;96582;-92
2023/03/12 05:06:36;;;;;;;11.03;6.07;;;0.10;95.20;;;-1.64;76.38;99875.47;10341736;28;96692;-89
2023/03/12 05:11:39;;;;;;;10.53;5.87;;;0.20;96.70;;;-1.60;76.12;99878.75;10335829;28;96597;-91
2023/03/12 05:16:42;;;;;;;8.50;5.33;;;0.20;96.30;;;-1.59;75.99;99886.44;10336163;28;96809;-89
2023/03/12 05:21:45;;;;;;;9.67;6.27;;;0.20;96.30;;;-1.59;75.95;99886.44;10362893;28;96983;-89
2023/03/12 05:26:48;;;;;;;9.27;6.27;;;0.20;96.30;;;-1.56;76.23;99896.69;10312799;28;96928;-91
2023/03/12 05:31:52;;;;;;;11.43;6.97;;;0.30;97.10;;;-1.51;76.15;99902.41;10306038;28;98103;-87
2023/03/12 05:36:56;;;;;;;9.50;5.90;;;0.30;97.50;;;-1.39;76.34;99917.28;10343088;28;96781;-92
2023/03/12 05:42:00;;;;;;;11.23;6.17;;;0.40;97.70;;;-1.29;76.16;99922.72;10311854;28;96604;-92
2023/03/12 05:47:03;;;;;;;10.87;5.83;;;0.50;97.70;;;-1.24;75.96;99925.06;10304943;28;96768;-91
2023/03/12 05:52:06;;;;;;;10.97;6.30;;;0.50;97.40;;;-1.15;75.79;99935.69;10314422;28;97046;-91
2023/03/12 05:57:09;;;;;;;9.00;5.77;;;0.60;97.50;;;-1.00;75.06;99948.69;10294947;28;98427;-92
2023/03/12 06:02:12;;;;;;;8.93;5.63;;;0.70;97.60;;;-0.79;74.32;99956.88;10300906;28;97456;-91
2023/03/12 06:07:16;;;;;;;9.50;5.63;;;0.90;96.90;;;-0.61;73.35;99972.13;10328178;28;99081;-90
2023/03/12 06:12:19;;;;;;;7.57;5.07;;;1.10;96.40;;;-0.40;71.85;99969.88;10350382;28;97985;-90
2023/03/12 06:17:22;;;;;;;7.50;4.90;;;1.20;95.40;;;-0.24;71.20;99968.81;10320549;28;96790;-88
2023/03/12 06:22:27;;;;;;;8.30;4.97;;;1.40;94.80;;;-0.09;70.69;99992.13;10317677;28;96554;-87
2023/03/12 06:27:32;;;;;;;9.63;5.40;;;1.50;94.50;;;0.06;69.56;99997.22;10307895;28;96701;-88
2023/03/12 06:32:35;;;;;;;8.17;5.80;;;1.70;93.70;;;0.16;68.73;100014.78;10320896;28;96519;-88
2023/03/12 06:37:38;;;;;;;9.50;5.37;;;1.80;93.20;;;0.21;67.93;100009.22;10329900;28;96791;-89
2023/03/12 06:42:41;;;;;;;8.30;5.07;;;1.90;92.80;;;0.27;68.36;100027.09;10313171;28;98256;-89
2023/03/12 06:47:45;;;;;;;8.97;5.57;;;2.00;92.90;;;0.30;67.69;100020.81;10330995;28;96736;-89
2023/03/12 06:52:48;;;;;;;7.13;4.90;;;2.00;92.60;;;0.36;67.51;100033.47;10313864;28;96700;-89
2023/03/12 06:57:51;;;;;;;9.77;6.10;;;2.00;92.40;;;0.40;67.19;100032.31;10326929;28;96592;-89
2023/03/12 07:02:54;;;;;;;17.63;11.37;;;2.10;92.20;;;0.51;67.01;100040.25;10321380;28;96624;-85
2023/03/12 07:07:57;;;;;;;10.37;6.17;;;2.20;92.20;;;0.60;66.89;100046.59;10322843;28;97912;-85
2023/03/12 07:13:00;;;;;;;9.10;5.60;;;2.30;92.00;;;0.66;65.63;100044.41;10331011;28;96708;-87
2023/03/12 07:18:06;;;;;;;8.10;5.57;;;2.30;91.80;;;0.79;66.25;100049.59;10315756;28;96504;-83
2023/03/12 07:23:10;;;;;;;8.57;5.23;;;2.40;91.70;;;0.96;65.65;100051.84;10348847;28;96934;-86
2023/03/12 07:28:13;;;;;;;8.07;5.60;;;2.60;91.40;;;1.13;64.90;100061.06;10354463;28;97588;-86
2023/03/12 07:33:20;;;;;;;8.10;5.27;;;2.70;91.00;;;1.28;63.61;100057.34;10312758;28;96613;-87
2023/03/12 07:38:24;;;;;;;6.87;4.50;;;2.90;90.10;;;1.44;62.40;100061.44;10307478;28;99383;-86
2023/03/12 07:43:27;;;;;;;8.27;4.50;;;3.10;89.90;;;1.56;61.77;100068.41;10327707;28;96901;-86
2023/03/12 07:48:30;;;;;;;6.30;4.40;;;3.20;87.70;;;1.72;61.42;100063.69;10314945;28;96542;-85
2023/03/12 07:53:33;;;;;;;8.03;4.80;;;3.40;88.00;;;1.90;61.25;100068.50;10323379;28;98622;-83
2023/03/12 07:58:37;;;;;;;6.50;4.40;;;3.50;87.50;;;2.11;60.38;100066.91;10335195;28;96582;-82
2023/03/12 08:03:40;;;;;;;5.77;4.13;;;3.70;86.30;;;2.50;59.85;100062.97;10350817;28;96719;-82
2023/03/12 08:08:44;;;;;;;5.40;3.97;;;3.90;86.50;;;4.12;57.89;100059.44;10345093;28;96607;-82
2023/03/12 08:13:47;;;;;;;4.90;3.83;;;4.50;86.10;;;5.04;53.60;100065.50;10325900;28;97335;-83
2023/03/12 08:18:50;;;;;;;5.63;3.93;;;5.10;85.20;;;5.32;51.80;100072.59;10313672;28;97490;-81
2023/03/12 08:23:53;;;;;;;5.03;3.27;;;5.60;82.00;;;6.09;50.00;100063.84;10342651;28;98187;-80
2023/03/12 08:28:58;;;;;;;6.03;3.80;;;6.30;81.10;;;6.48;48.25;100071.66;10324505;28;98777;-80
2023/03/12 08:34:02;;;;;;;4.77;3.13;;;6.80;79.50;;;7.39;46.97;100077.00;10325309;28;98357;-81
2023/03/12 08:39:05;;;;;;;4.67;3.67;;;7.50;79.60;;;7.95;44.00;100078.47;10327725;28;96744;-81
2023/03/12 08:44:08;;;;;;;4.83;3.63;;;8.10;75.70;;;8.44;41.21;100073.53;10334873;28;96683;-81
2023/03/12 08:49:11;;;;;;;4.37;3.40;;;8.50;72.80;;;8.97;41.62;100078.59;10317327;28;97413;-81
2023/03/12 08:54:14;;;;;;;4.23;3.10;;;8.90;71.50;;;9.29;39.82;100077.00;10342952;28;96659;-80
2023/03/12 08:59:19;;;;;;;4.83;3.13;;;9.50;68.70;;;9.62;38.99;100067.28;10304477;28;98644;-79
2023/03/12 09:04:22;;;;;;;3.57;2.57;;;9.90;68.70;;;10.11;37.25;100064.63;10313878;28;98860;-80
2023/03/12 09:09:25;;;;;;;4.85;3.00;;;10.40;63.50;;;10.49;36.51;100054.28;10317163;28;97452;-80
2023/03/12 09:14:28;;;;;;;4.93;2.67;;;10.70;61.50;;;10.59;34.39;100050.41;10323746;28;97248;-80
2023/03/12 09:19:51;;;;;;;2.72;2.13;;;10.80;58.50;;;10.66;34.14;100056.69;10294642;28;98101;-79
2023/03/12 09:24:54;;;;;;;4.20;2.13;;;10.90;56.10;;;10.83;33.05;100057.47;10327926;28;98857;-80
2023/03/12 09:29:57;;;;;;;6.90;4.25;;;11.10;55.10;;;10.39;32.42;100057.97;10307829;28;96581;-79
2023/03/12 09:35:05;;;;;;;27.50;15.30;;;11.10;52.30;;;9.87;32.64;100052.19;10335118;28;96453;-80
2023/03/12 09:40:19;;;;;;;5.23;3.50;;;10.70;51.30;;;9.32;33.20;100058.13;10275928;28;96742;-79
2023/03/12 09:45:34;;;;;;;4.83;2.53;;;10.20;51.30;;;8.96;32.73;100054.91;10309243;28;96482;-80
2023/03/12 09:50:44;;;;;;;4.07;2.30;;;9.80;51.00;;;8.96;33.48;100049.59;10313930;28;97702;-80
2023/03/12 09:55:51;;;;;;;3.10;2.20;;;9.60;50.90;;;8.72;33.56;100045.03;10322978;28;97419;-80
2023/03/12 10:01:06;;;;;;;5.63;2.63;;;9.50;51.50;;;8.93;33.00;100044.59;10329316;28;98695;-80
2023/03/12 10:06:23;;;;;;;2.87;1.90;;;9.90;51.10;;;9.16;31.85;100043.00;10346968;28;97307;-80
2023/03/12 10:11:57;;;;;;;3.10;2.10;;;10.30;49.30;;;9.54;32.21;100038.13;10316924;28;96593;-80
2023/03/12 10:17:20;;;;;;;3.57;2.30;;;10.50;49.70;;;9.22;31.62;100039.72;10283399;28;96660;-80
2023/03/12 10:23:00;;;;;;;3.63;2.50;;;10.50;48.40;;;9.49;32.05;100049.22;10290291;28;98293;-80
2023/03/12 10:28:43;;;;;;;2.47;1.77;;;10.90;49.10;;;9.88;31.28;100052.03;10290773;28;96476;-80
2023/03/12 10:33:57;;;;;;;3.22;1.92;;;11.40;46.20;;;10.35;30.48;100046.00;10302248;28;96792;-81
2023/03/12 10:39:00;;;;;;;1.92;1.50;;;11.80;47.50;;;11.04;30.60;100046.25;10318714;28;96618;-78
2023/03/12 10:44:07;;;;;;;3.03;2.08;;;12.20;48.30;;;11.43;29.20;100046.16;10332612;28;96435;-79
2023/03/12 10:49:28;;;;;;;2.50;1.90;;;12.80;46.60;;;11.99;29.63;100040.56;10336390;28;96555;-79
2023/03/12 10:54:39;;;;;;;3.08;2.20;;;13.40;46.50;;;12.79;28.55;100043.38;10322816;28;96569;-79
2023/03/12 10:59:47;;;;;;;2.95;1.98;;;14.30;46.20;;;12.75;27.54;100051.94;10338047;28;97296;-79
2023/03/12 11:04:52;;;;;;;4.00;2.60;;;14.50;43.80;;;12.72;28.50;100052.31;10338533;28;98810;-80
2023/03/12 11:10:14;;;;;;;2.10;1.42;;;14.60;44.60;;;13.00;27.03;100049.78;10320346;28;97372;-80
2023/03/12 11:15:37;;;;;;;2.58;1.63;;;14.80;42.50;;;13.44;25.28;100041.69;10326754;28;97068;-80
2023/03/12 11:20:40;;;;;;;3.65;2.58;;;15.20;40.10;;;13.19;26.70;100040.34;10326875;28;96650;-79
2023/03/12 11:25:49;;;;;;;2.83;1.42;;;15.30;41.40;;;13.13;24.56;100039.25;10324078;28;96521;-79
2023/03/12 11:30:56;;;;;;;5.38;3.30;;;15.20;40.00;;;12.88;24.86;100045.94;10353777;28;97823;-80
2023/03/12 11:36:34;;;;;;;2.45;1.40;;;15.20;39.30;;;12.25;24.33;100045.50;10336730;28;96560;-79
2023/03/12 11:42:03;;;;;;;2.10;1.17;;;14.70;37.40;;;12.48;24.31;100045.44;10332987;28;97586;-80
2023/03/12 11:47:31;;;;;;;1.63;1.10;;;14.50;37.40;;;13.00;23.23;100045.25;10330036;28;97073;-80
2023/03/12 11:53:20;;;;;;;1.60;1.17;;;14.80;36.70;;;11.88;21.89;100047.19;10308807;28;98949;-78
2023/03/12 11:58:52;;;;;;;1.73;0.98;;;14.60;34.90;;;11.50;23.14;100041.78;10306412;28;97409;-80
2023/03/12 12:04:32;;;;;;;1.20;1.00;;;13.80;35.20;;;11.92;22.98;100044.97;10320511;28;97063;-80
2023/03/12 12:10:04;;;;;;;2.47;1.75;;;14.00;35.70;;;12.20;23.50;100035.38;10293881;28;96590;-80
2023/03/12 12:15:32;;;;;;;1.75;1.27;;;14.30;36.20;;;11.69;22.84;100034.31;10329782;28;97515;-79
2023/03/12 12:20:47;;;;;;;2.35;1.40;;;14.10;35.20;;;11.43;24.37;100032.84;10294523;28;96602;-80
2023/03/12 12:26:11;;;;;;;1.67;1.27;;;13.80;36.40;;;11.82;23.22;100031.09;10347662;28;96628;-79
2023/03/12 12:31:43;;;;;;;2.33;1.35;;;13.80;34.40;;;11.61;22.33;100021.91;10335917;28;96788;-80
2023/03/12 12:36:55;;;;;;;1.65;1.23;;;13.70;35.00;;;11.45;22.79;100017.53;10337542;28;96748;-79
2023/03/12 12:42:06;;;;;;;1.80;1.10;;;13.00;35.30;;;10.36;23.43;100034.38;10311801;28;98418;-79
2023/03/12 12:47:17;;;;;;;1.33;0.90;;;12.10;35.30;;;9.74;24.31;100042.09;10335210;28;98628;-79
2023/03/12 12:52:21;;;;;;;1.80;1.10;;;11.30;35.80;;;9.31;24.12;100046.69;10332580;28;96567;-79
2023/03/12 12:58:10;;;;;;;3.77;1.40;;;10.90;36.10;;;8.91;24.21;100034.16;10301385;28;98316;-79
2023/03/12 13:03:23;;;;;;;1.70;1.10;;;10.60;36.10;;;8.80;24.77;100035.28;10300885;28;98501;-78
2023/03/12 13:08:38;;;;;;;1.87;1.20;;;10.50;37.00;;;8.76;25.30;100047.22;10293065;28;96559;-78
2023/03/12 13:13:49;;;;;;;2.60;1.30;;;10.50;37.40;;;8.80;25.40;100043.25;10329652;28;97167;-79
2023/03/12 13:19:14;;;;;;;1.90;1.20;;;10.50;37.50;;;8.65;24.55;100044.84;10316010;28;97339;-78
2023/03/12 13:24:32;;;;;;;1.83;1.33;;;10.40;36.40;;;8.55;24.82;100044.13;10308214;28;97752;-79
2023/03/12 13:29:40;;;;;;;3.03;1.90;;;10.40;36.80;;;8.68;25.70;100039.22;10330183;28;96759;-79
2023/03/12 13:34:46;;;;;;;4.00;2.80;;;10.40;37.70;;;8.76;26.32;100036.63;10309518;28;98485;-78
2023/03/12 13:39:50;;;;;;;4.10;2.50;;;10.60;38.20;;;8.71;27.08;100052.16;10299942;28;96731;-79
2023/03/12 13:44:54;;;;;;;3.87;2.50;;;10.70;39.10;;;8.57;27.36;100063.34;10343990;28;96538;-78
2023/03/12 13:50:13;;;;;;;100.87;38.70;;;10.70;39.00;;;8.59;26.25;100056.09;10322386;28;97502;-79
2023/03/12 13:55:30;;;;;;;21.90;10.53;;;10.70;38.10;;;8.70;25.62;100069.06;10315595;28;96534;-79
2023/03/12 14:01:01;;;;;;;7.57;4.67;;;10.90;37.70;;;8.79;25.34;100057.47;10300603;28;96690;-79
2023/03/12 14:06:04;;;;;;;3.27;1.90;;;10.90;36.90;;;8.79;24.68;100054.84;10276777;28;96439;-80
2023/03/12 14:11:52;;;;;;;11.33;5.13;;;10.90;36.20;;;8.69;23.91;100053.28;10320092;28;98031;-79
2023/03/12 14:17:00;;;;;;;4.27;2.50;;;10.90;35.60;;;8.77;23.29;100054.16;10325604;28;96689;-79
2023/03/12 14:22:06;;;;;;;2.47;1.87;;;10.90;35.20;;;8.65;23.27;100066.03;10314073;28;98225;-79
2023/03/12 14:27:23;;;;;;;3.27;1.80;;;11.00;34.90;;;8.61;22.64;100063.88;10335755;28;96659;-79
2023/03/12 14:32:32;;;;;;;4.53;2.57;;;10.90;34.50;;;8.47;23.84;100075.88;10316438;28;96994;-81
2023/03/12 14:37:42;;;;;;;3.10;1.73;;;10.90;35.10;;;8.56;23.68;100067.81;10313565;28;98554;-79
2023/03/12 14:42:46;;;;;;;2.63;1.95;;;11.00;35.00;;;8.61;23.52;100067.34;10297742;28;96758;-79
2023/03/12 14:47:58;;;;;;;3.07;1.90;;;11.00;34.90;;;8.54;24.33;100072.44;10309465;28;98302;-80
2023/03/12 14:53:18;;;;;;;2.80;1.80;;;10.70;35.40;;;8.50;24.99;100062.31;10309672;28;97170;-81
2023/03/12 14:58:21;;;;;;;3.13;2.20;;;10.50;36.00;;;8.35;24.98;100069.16;10316529;28;96676;-80
2023/03/12 15:03:26;;;;;;;3.23;2.03;;;10.20;36.30;;;8.25;25.59;100078.03;10310898;28;97688;-81
2023/03/12 15:08:33;;;;;;;7.67;3.63;;;10.10;37.00;;;8.30;25.97;100070.44;10318471;28;97497;-80
2023/03/12 15:13:38;;;;;;;8.33;5.43;;;10.10;37.50;;;8.26;26.32;100077.03;10320130;28;96636;-79
2023/03/12 15:18:42;;;;;;;5.80;3.30;;;10.00;37.80;;;8.18;25.90;100071.69;10303265;28;96749;-80
2023/03/12 15:23:47;;;;;;;3.33;2.33;;;9.90;37.70;;;8.03;26.05;100083.81;10322652;28;96563;-80
2023/03/12 15:29:15;;;;;;;5.47;3.73;;;9.70;37.60;;;8.00;26.06;100092.09;10344743;28;96620;-80
2023/03/12 15:34:37;;;;;;;6.20;3.90;;;9.60;38.00;;;7.81;26.71;100079.88;10311128;28;96582;-80
2023/03/12 15:39:49;;;;;;;45.83;32.40;;;9.50;38.70;;;7.64;27.20;100086.81;10368162;28;96652;-80
2023/03/12 15:44:55;;;;;;;14.43;8.47;;;9.20;39.10;;;7.55;27.70;100089.53;10301415;28;97436;-80
2023/03/12 15:50:31;;;;;;;63.30;37.83;;;9.10;39.40;;;7.43;27.91;100091.56;10309059;28;96591;-80
2023/03/12 15:55:35;;;;;;;7.37;4.33;;;9.00;39.70;;;7.23;28.32;100104.91;10328150;28;97607;-80
2023/03/12 16:00:44;;;;;;;5.80;3.40;;;8.90;40.20;;;7.00;28.56;100108.94;10333941;28;96575;-80
2023/03/12 16:05:49;;;;;;;3.50;2.20;;;8.60;40.40;;;6.70;29.02;100110.06;10333796;28;96635;-80
2023/03/12 16:10:52;;;;;;;2.67;1.90;;;8.40;40.60;;;6.47;29.25;100106.94;10368171;28;96703;-80
2023/03/12 16:15:56;;;;;;;9.03;6.10;;;8.20;40.90;;;6.29;29.94;100112.13;10295004;28;96655;-80
2023/03/12 16:21:00;;;;;;;9.87;6.23;;;8.00;41.20;;;6.09;30.00;100119.25;10335002;28;96509;-80
2023/03/12 16:26:04;;;;;;;7.97;4.17;;;7.80;41.50;;;5.93;29.96;100129.53;10318274;28;97267;-80
2023/03/12 16:31:14;;;;;;;4.87;2.50;;;7.60;41.60;;;5.75;30.06;100131.16;10315944;28;96910;-80
2023/03/12 16:36:18;;;;;;;3.73;2.17;;;7.50;41.50;;;5.60;29.95;100138.66;10339281;28;96492;-81
2023/03/12 16:41:21;;;;;;;3.83;1.93;;;7.20;41.50;;;5.42;30.22;100146.41;10334662;28;96705;-81
2023/03/12 16:46:28;;;;;;;4.07;2.70;;;7.10;41.80;;;5.25;30.83;100147.06;10331999;28;96546;-80
2023/03/12 16:51:31;;;;;;;3.60;1.90;;;6.90;42.10;;;5.06;31.39;100161.84;10315490;28;96939;-84
2023/03/12 16:56:35;;;;;;;3.60;2.03;;;6.80;42.70;;;4.81;31.89;100159.66;10321745;28;96593;-86
2023/03/12 17:01:38;;;;;;;6.73;3.20;;;6.60;43.20;;;4.60;32.68;100172.84;10298500;28;97448;-87
2023/03/12 17:06:42;;;;;;;6.43;3.00;;;6.40;43.60;;;4.41;33.63;100181.47;10358292;28;96499;-88
2023/03/12 17:11:46;;;;;;;5.27;3.03;;;6.20;43.90;;;4.21;33.90;100169.16;10308343;28;97502;-86
2023/03/12 17:16:49;;;;;;;71.47;34.60;;;6.00;44.20;;;4.02;33.94;100170.69;10307343;28;97192;-80
2023/03/12 17:21:53;;;;;;;142.63;64.03;;;5.90;45.00;;;3.84;35.02;100177.44;10326812;28;96707;-81
2023/03/12 17:26:57;;;;;;;94.00;39.93;;;5.70;44.90;;;3.68;35.50;100184.91;10314445;28;96571;-88
2023/03/12 17:32:00;;;;;;;52.97;22.60;;;5.60;45.40;;;3.49;36.62;100186.38;10335480;28;98628;-83
2023/03/12 17:37:03;;;;;;;48.17;21.73;;;5.40;46.10;;;3.31;37.09;100182.59;10315046;28;96633;-85
2023/03/12 17:42:06;;;;;;;32.20;14.63;;;5.20;46.70;;;3.16;37.94;100183.78;10317955;28;97370;-84
2023/03/12 17:47:09;;;;;;;57.90;25.33;;;5.10;47.10;;;3.01;38.56;100182.38;10318208;28;96615;-84
2023/03/12 17:52:12;;;;;;;99.43;47.47;;;4.90;47.60;;;2.84;39.06;100181.91;10309385;28;98417;-84
2023/03/12 17:57:15;;;;;;;124.37;62.13;;;4.80;48.20;;;2.67;40.25;100182.34;10320798;28;96604;-84
2023/03/12 18:02:18;;;;;;;65.17;36.70;;;4.60;49.10;;;2.50;40.38;100188.06;10319540;28;96658;-84
2023/03/12 18:07:21;;;;;;;33.60;20.73;;;4.40;49.00;;;2.31;40.87;100184.19;10349116;28;96628;-87
2023/03/12 18:12:25;;;;;;;26.50;16.03;;;4.30;49.80;;;2.14;41.44;100182.00;10299392;28;96950;-86
2023/03/12 18:17:28;;;;;;;23.30;10.93;;;4.10;49.80;;;1.97;43.16;100200.75;10303497;28;98143;-85
2023/03/12 18:22:31;;;;;;;13.07;7.47;;;3.90;51.40;;;1.80;43.43;100210.72;10321514;28;96731;-86
2023/03/12 18:27:35;;;;;;;14.17;7.20;;;3.70;51.60;;;1.63;43.85;100211.09;10313883;28;96530;-88
2023/03/12 18:32:38;;;;;;;15.80;8.57;;;3.60;51.80;;;1.44;44.39;100201.09;10317438;28;97140;-85
2023/03/12 18:37:42;;;;;;;13.87;7.33;;;3.50;52.30;;;1.32;44.79;100226.38;10297188;28;98133;-89
2023/03/12 18:42:45;;;;;;;16.80;8.10;;;3.30;52.70;;;1.17;45.73;100226.59;10307141;28;96872;-86
2023/03/12 18:47:49;;;;;;;13.63;7.03;;;3.20;53.20;;;1.04;46.14;100227.47;10300519;28;97124;-85
2023/03/12 18:52:52;;;;;;;15.17;7.17;;;3.00;53.60;;;0.91;46.40;100221.41;10287545;28;99192;-86
2023/03/12 18:57:55;;;;;;;15.80;8.47;;;2.90;53.90;;;0.79;47.29;100227.47;10346099;28;97509;-89
2023/03/12 19:02:58;;;;;;;16.13;8.70;;;2.70;54.40;;;0.67;47.67;100223.91;10317065;28;97434;-84
2023/03/12 19:08:02;;;;;;;17.80;9.13;;;2.70;55.10;;;0.58;48.24;100219.28;10318585;28;96816;-84
2023/03/12 19:13:05;;;;;;;14.03;6.63;;;2.50;55.40;;;0.51;48.85;100218.88;10319960;28;96599;-88
2023/03/12 19:18:08;;;;;;;10.53;5.37;;;2.50;56.10;;;0.44;49.43;100219.41;10338479;28;96594;-83
2023/03/12 19:23:14;;;;;;;11.67;6.10;;;2.40;56.70;;;0.37;49.58;100231.22;10334720;28;97001;-88
2023/03/12 19:28:17;;;;;;;21.37;10.17;;;2.30;56.50;;;0.33;50.16;100240.19;10354700;28;96684;-88
2023/03/12 19:33:20;;;;;;;17.50;7.57;;;2.30;57.40;;;0.25;49.91;100244.16;10324692;28;98186;-93
2023/03/12 19:38:23;;;;;;;20.33;9.43;;;2.20;57.20;;;0.22;50.44;100270.47;10316967;28;96408;-96
2023/03/12 19:43:27;;;;;;;29.10;11.23;;;2.20;58.20;;;0.19;50.82;100270.69;10350804;28;97612;-94
2023/03/12 19:48:30;;;;;;;60.00;20.53;;;2.20;58.50;;;0.12;51.29;100269.41;10324174;28;97019;-88
2023/03/12 19:53:34;;;;;;;76.77;24.63;;;2.10;58.40;;;0.05;51.88;100273.34;10283181;28;97539;-96
2023/03/12 19:58:37;;;;;;;33.83;12.67;;;2.00;59.10;;;-0.02;52.41;100272.06;10330235;28;96327;-91
2023/03/12 20:03:41;;;;;;;32.97;12.50;;;1.90;59.20;;;-0.12;53.15;100270.97;10349063;28;96676;-88
2023/03/12 20:08:47;;;;;;;24.33;9.93;;;1.90;60.00;;;-0.19;53.16;100269.69;10334997;28;97575;-90
2023/03/12 20:13:51;;;;;;;28.50;11.57;;;1.80;59.80;;;-0.25;53.47;100275.28;10304826;28;97594;-91
2023/03/12 20:18:54;;;;;;;27.80;10.90;;;1.70;60.90;;;-0.31;54.17;100269.53;10311678;28;96834;-92
2023/03/12 20:23:57;;;;;;;42.20;13.07;;;1.70;61.20;;;-0.34;54.33;100289.78;10327432;28;98601;-91
2023/03/12 20:29:01;;;;;;;37.50;14.63;;;1.60;62.20;;;-0.45;54.67;100276.56;10350997;22;96731;-93
2023/03/12 20:34:04;;;;;;;24.80;9.60;;;1.60;61.90;;;-0.45;55.00;100274.78;10258084;28;96619;-91
2023/03/12 20:39:07;;;;;;;26.47;11.27;;;1.50;62.00;;;-0.49;55.70;100254.19;10265954;28;96526;-92
2023/03/12 20:44:10;;;;;;;30.53;11.43;;;1.50;62.50;;;-0.55;55.95;100268.44;10231122;28;96789;-92
2023/03/12 20:49:14;;;;;;;28.07;12.00;;;1.40;63.00;;;-0.60;56.39;100279.19;10253349;28;96699;-91
2023/03/12 20:54:16;;;;;;;20.57;9.53;;;1.40;63.50;;;-0.62;56.50;100295.88;10256739;28;96967;-93
2023/03/12 20:59:20;;;;;;;20.20;10.40;;;1.30;63.70;;;-0.64;56.88;100289.91;10234914;28;98033;-92
2023/03/12 21:04:23;;;;;;;18.27;8.50;;;1.30;63.80;;;-0.65;57.14;100296.06;10247568;28;96662;-90
2023/03/12 21:09:27;;;;;;;16.07;7.13;;;1.30;64.40;;;-0.55;57.56;100294.56;10234955;28;97092;-91
2023/03/12 21:14:33;;;;;;;15.50;8.27;;;1.40;64.70;;;-0.31;57.99;100292.19;10247970;28;98204;-92
2023/03/12 21:19:36;;;;;;;35.90;13.90;;;1.50;65.70;;;-0.11;58.00;100280.50;10232671;28;98286;-92